Time,TemperatureF,DewpointF,PressureIn,WindDirection,WindDirectionDegrees,WindSpeedMPH,WindSpeedGustMPH,Humidity,HourlyPrecipIn,Conditions,Clouds,dailyrainin,SoftwareType,DateUTC
2013-04-30 00:00:00,76.3,39.8,29.46,SW,220,7.0,13.0,27,0.00,,,0.00,Wunderground v.1.15,2013-04-30 07:00:00,
2013-04-30 00:05:00,77.0,38.5,29.46,SW,214,10.0,13.0,25,0.00,,,0.00,Wunderground v.1.15,2013-04-30 07:05:00,
2013-04-30 00:15:00,76.3,40.8,29.46,SSW,200,6.0,10.0,28,0.00,,,0.00,Wunderground v.1.15,2013-04-30 07:15:00,
2013-04-30 00:20:00,76.0,40.5,29.46,SSW,196,3.0,7.0,28,0.00,,,0.00,Wunderground v.1.15,2013-04-30 07:20:00,
2013-04-30 00:25:00,76.1,40.6,29.46,SSW,199,2.0,7.0,28,0.00,,,0.00,Wunderground v.1.15,2013-04-30 07:25:00,
2013-04-30 00:35:00,76.0,39.6,29.46,SW,219,2.0,7.0,27,0.00,,,0.00,Wunderground v.1.15,2013-04-30 07:35:00,
2013-04-30 00:45:00,76.1,39.7,29.46,SW,221,7.0,7.0,27,0.00,,,0.00,Wunderground v.1.15,2013-04-30 07:45:00,
2013-04-30 00:50:00,76.3,39.8,29.46,SW,215,5.0,5.0,27,0.00,,,0.00,Wunderground v.1.15,2013-04-30 07:50:00,
2013-04-30 01:00:00,76.0,40.5,29.46,SW,218,5.0,7.0,28,0.00,,,0.00,Wunderground v.1.15,2013-04-30 08:00:00,
2013-04-30 01:05:00,75.6,40.2,29.46,SW,229,8.0,12.0,28,0.00,,,0.00,Wunderground v.1.15,2013-04-30 08:05:00,
2013-04-30 01:15:00,75.1,40.7,29.46,WSW,254,8.0,10.0,29,0.00,,,0.00,Wunderground v.1.15,2013-04-30 08:15:00,
2013-04-30 01:20:00,75.4,40.9,29.46,SSW,195,7.0,7.0,29,0.00,,,0.00,Wunderground v.1.15,2013-04-30 08:20:00,
2013-04-30 01:25:00,75.3,40.8,29.46,SSW,211,4.0,7.0,29,0.00,,,0.00,Wunderground v.1.15,2013-04-30 08:25:00,
2013-04-30 01:35:00,75.8,40.4,29.46,SW,231,5.0,9.0,28,0.00,,,0.00,Wunderground v.1.15,2013-04-30 08:35:00,
2013-04-30 01:45:00,75.4,40.0,29.46,South,173,2.0,2.0,28,0.00,,,0.00,Wunderground v.1.15,2013-04-30 08:45:00,
2013-04-30 01:55:00,75.4,39.1,29.45,SW,232,4.0,5.0,27,0.00,,,0.00,Wunderground v.1.15,2013-04-30 08:55:00,
2013-04-30 02:00:00,75.3,39.0,29.45,SW,218,5.0,5.0,27,0.00,,,0.00,Wunderground v.1.15,2013-04-30 09:00:00,
2013-04-30 02:05:00,75.3,39.9,29.45,SSW,211,4.0,5.0,28,0.00,,,0.00,Wunderground v.1.15,2013-04-30 09:05:00,
2013-04-30 02:15:00,75.4,39.1,29.45,SW,219,4.0,9.0,27,0.00,,,0.00,Wunderground v.1.15,2013-04-30 09:15:00,
2013-04-30 02:20:00,75.4,40.0,29.44,SW,230,4.0,4.0,28,0.00,,,0.00,Wunderground v.1.15,2013-04-30 09:20:00,
2013-04-30 02:25:00,75.4,40.0,29.44,SW,231,3.0,5.0,28,0.00,,,0.00,Wunderground v.1.15,2013-04-30 09:25:00,
2013-04-30 02:35:00,74.9,39.6,29.44,WSW,248,3.0,7.0,28,0.00,,,0.00,Wunderground v.1.15,2013-04-30 09:35:00,
2013-04-30 02:45:00,75.6,39.2,29.44,SW,229,3.0,10.0,27,0.00,,,0.00,Wunderground v.1.15,2013-04-30 09:45:00,
2013-04-30 02:50:00,75.3,39.9,29.44,SSW,198,3.0,6.0,28,0.00,,,0.00,Wunderground v.1.15,2013-04-30 09:50:00,
2013-04-30 03:00:00,75.8,39.4,29.44,SW,225,4.0,4.0,27,0.00,,,0.00,Wunderground v.1.15,2013-04-30 10:00:00,
2013-04-30 03:05:00,75.4,39.1,29.44,SW,227,4.0,4.0,27,0.00,,,0.00,Wunderground v.1.15,2013-04-30 10:05:00,
2013-04-30 03:15:00,75.3,39.9,29.44,SSW,210,4.0,4.0,28,0.00,,,0.00,Wunderground v.1.15,2013-04-30 10:15:00,
2013-04-30 03:20:00,75.1,38.8,29.44,SSW,199,4.0,4.0,27,0.00,,,0.00,Wunderground v.1.15,2013-04-30 10:20:00,
2013-04-30 03:25:00,75.3,38.0,29.44,SSW,210,3.0,4.0,26,0.00,,,0.00,Wunderground v.1.15,2013-04-30 10:25:00,
2013-04-30 03:35:00,75.3,37.0,29.44,SW,221,4.0,11.0,25,0.00,,,0.00,Wunderground v.1.15,2013-04-30 10:35:00,
2013-04-30 03:40:00,75.1,38.8,29.44,SW,214,4.0,11.0,27,0.00,,,0.00,Wunderground v.1.15,2013-04-30 10:40:00,
2013-04-30 03:50:00,75.1,37.9,29.44,SW,215,6.0,6.0,26,0.00,,,0.00,Wunderground v.1.15,2013-04-30 10:50:00,
2013-04-30 03:55:00,74.9,37.7,29.44,SW,230,4.0,6.0,26,0.00,,,0.00,Wunderground v.1.15,2013-04-30 10:55:00,
2013-04-30 04:05:00,74.6,37.4,29.44,SW,225,6.0,6.0,26,0.00,,,0.00,Wunderground v.1.15,2013-04-30 11:05:00,
2013-04-30 04:15:00,74.7,36.5,29.44,SW,216,4.0,6.0,25,0.00,,,0.00,Wunderground v.1.15,2013-04-30 11:15:00,
2013-04-30 04:25:00,74.0,36.9,29.44,SSW,209,2.0,2.0,26,0.00,,,0.00,Wunderground v.1.15,2013-04-30 11:25:00,
2013-04-30 04:35:00,74.0,36.9,29.44,SSW,208,1.0,5.0,26,0.00,,,0.00,Wunderground v.1.15,2013-04-30 11:35:00,
2013-04-30 04:40:00,73.9,36.8,29.44,SW,214,2.0,2.0,26,0.00,,,0.00,Wunderground v.1.15,2013-04-30 11:40:00,
2013-04-30 04:50:00,73.9,35.8,29.44,SW,227,3.0,6.0,25,0.00,,,0.00,Wunderground v.1.15,2013-04-30 11:50:00,
2013-04-30 05:00:00,74.2,34.0,29.44,SW,225,3.0,6.0,23,0.00,,,0.00,Wunderground v.1.15,2013-04-30 12:00:00,
2013-04-30 05:05:00,74.6,34.3,29.44,SSW,198,3.0,6.0,23,0.00,,,0.00,Wunderground v.1.15,2013-04-30 12:05:00,
2013-04-30 05:15:00,74.2,34.0,29.44,SSW,212,2.0,7.0,23,0.00,,,0.00,Wunderground v.1.15,2013-04-30 12:15:00,
2013-04-30 05:20:00,74.2,34.0,29.44,SSW,196,2.0,2.0,23,0.00,,,0.00,Wunderground v.1.15,2013-04-30 12:20:00,
2013-04-30 05:25:00,73.9,33.7,29.44,SSW,206,1.0,2.0,23,0.00,,,0.00,Wunderground v.1.15,2013-04-30 12:25:00,
2013-04-30 05:35:00,73.2,35.2,29.44,SW,215,0.0,1.0,25,0.00,,,0.00,Wunderground v.1.15,2013-04-30 12:35:00,
2013-04-30 05:45:00,72.5,33.6,29.44,SSW,206,0.0,1.0,24,0.00,,,0.00,Wunderground v.1.15,2013-04-30 12:45:00,
2013-04-30 05:50:00,72.7,34.8,29.44,SW,215,0.0,0.0,25,0.00,,,0.00,Wunderground v.1.15,2013-04-30 12:50:00,
2013-04-30 06:00:00,72.1,34.3,29.44,SW,215,0.0,0.0,25,0.00,,,0.00,Wunderground v.1.15,2013-04-30 13:00:00,
2013-04-30 06:05:00,72.1,34.3,29.44,SSW,210,1.0,1.0,25,0.00,,,0.00,Wunderground v.1.15,2013-04-30 13:05:00,
2013-04-30 06:15:00,72.7,33.8,29.44,SW,215,1.0,1.0,24,0.00,,,0.00,Wunderground v.1.15,2013-04-30 13:15:00,
2013-04-30 06:20:00,72.3,34.5,29.45,SSW,212,0.0,0.0,25,0.00,,,0.00,Wunderground v.1.15,2013-04-30 13:20:00,
2013-04-30 06:25:00,72.0,34.2,29.45,SW,224,0.0,0.0,25,0.00,,,0.00,Wunderground v.1.15,2013-04-30 13:25:00,
2013-04-30 06:35:00,72.3,34.5,29.45,SSW,213,0.0,0.0,25,0.00,,,0.00,Wunderground v.1.15,2013-04-30 13:35:00,
2013-04-30 06:45:00,73.0,34.1,29.45,SSW,209,0.0,1.0,24,0.00,,,0.00,Wunderground v.1.15,2013-04-30 13:45:00,
2013-04-30 06:55:00,73.5,34.5,29.46,SSW,207,0.0,0.0,24,0.00,,,0.00,Wunderground v.1.15,2013-04-30 13:55:00,
2013-04-30 07:00:00,74.0,33.8,29.46,SSW,204,1.0,1.0,23,0.00,,,0.00,Wunderground v.1.15,2013-04-30 14:00:00,
2013-04-30 07:05:00,74.4,34.2,29.46,SSW,207,0.0,1.0,23,0.00,,,0.00,Wunderground v.1.15,2013-04-30 14:05:00,
2013-04-30 07:15:00,75.3,32.6,29.46,SSW,208,0.0,0.0,21,0.00,,,0.00,Wunderground v.1.15,2013-04-30 14:15:00,
2013-04-30 07:20:00,76.0,32.0,29.46,SW,225,0.0,3.0,20,0.00,,,0.00,Wunderground v.1.15,2013-04-30 14:20:00,
2013-04-30 07:30:00,77.4,33.2,29.46,SW,216,2.0,2.0,20,0.00,,,0.00,Wunderground v.1.15,2013-04-30 14:30:00,
2013-04-30 07:40:00,77.9,32.3,29.46,SW,219,1.0,1.0,19,0.00,,,0.00,Wunderground v.1.15,2013-04-30 14:40:00,
2013-04-30 07:45:00,78.3,32.6,29.46,WSW,254,1.0,1.0,19,0.00,,,0.00,Wunderground v.1.15,2013-04-30 14:45:00,
2013-04-30 07:50:00,78.8,31.7,29.46,WSW,247,0.0,0.0,18,0.00,,,0.00,Wunderground v.1.15,2013-04-30 14:50:00,
2013-04-30 08:00:00,79.2,34.6,29.46,WSW,240,5.0,5.0,20,0.00,,,0.00,Wunderground v.1.15,2013-04-30 15:00:00,
2013-04-30 08:05:00,79.6,33.7,29.46,SW,233,5.0,6.0,19,0.00,,,0.00,Wunderground v.1.15,2013-04-30 15:05:00,
2013-04-30 08:15:00,79.9,33.9,29.46,WSW,250,4.0,6.0,19,0.00,,,0.00,Wunderground v.1.15,2013-04-30 15:15:00,
2013-04-30 08:20:00,80.3,32.9,29.46,West,273,2.0,2.0,18,0.00,,,0.00,Wunderground v.1.15,2013-04-30 15:20:00,
2013-04-30 08:30:00,80.7,33.2,29.46,SW,230,1.0,9.0,18,0.00,,,0.00,Wunderground v.1.15,2013-04-30 15:30:00,
2013-04-30 08:40:00,81.1,33.6,29.45,SW,221,6.0,6.0,18,0.00,,,0.00,Wunderground v.1.15,2013-04-30 15:40:00,
2013-04-30 08:50:00,81.6,31.0,29.45,WSW,246,2.0,2.0,16,0.00,,,0.00,Wunderground v.1.15,2013-04-30 15:50:00,
2013-04-30 08:55:00,82.0,32.9,29.45,WNW,285,1.0,2.0,17,0.00,,,0.00,Wunderground v.1.15,2013-04-30 15:55:00,
2013-04-30 09:05:00,83.0,32.2,29.45,West,280,0.0,0.0,16,0.00,,,0.00,Wunderground v.1.15,2013-04-30 16:05:00,
2013-04-30 09:15:00,83.4,32.5,29.45,WNW,284,0.0,1.0,16,0.00,,,0.00,Wunderground v.1.15,2013-04-30 16:15:00,
2013-04-30 09:25:00,83.8,31.2,29.45,WSW,244,1.0,1.0,15,0.00,,,0.00,Wunderground v.1.15,2013-04-30 16:25:00,
2013-04-30 09:35:00,84.1,29.7,29.44,SSW,204,7.0,10.0,14,0.00,,,0.00,Wunderground v.1.15,2013-04-30 16:35:00,
2013-04-30 09:40:00,84.7,30.2,29.44,West,271,6.0,6.0,14,0.00,,,0.00,Wunderground v.1.15,2013-04-30 16:40:00,
2013-04-30 09:50:00,86.7,30.0,29.44,WSW,250,9.0,14.0,13,0.00,,,0.00,Wunderground v.1.15,2013-04-30 16:50:00,
2013-04-30 09:55:00,86.7,30.0,29.44,SW,217,11.0,14.0,13,0.00,,,0.00,Wunderground v.1.15,2013-04-30 16:55:00,
2013-04-30 10:05:00,86.1,29.5,29.44,SW,229,9.0,12.0,13,0.00,,,0.00,Wunderground v.1.15,2013-04-30 17:05:00,
2013-04-30 10:15:00,87.4,28.5,29.44,SSW,205,8.0,14.0,12,0.00,,,0.00,Wunderground v.1.15,2013-04-30 17:15:00,
2013-04-30 10:25:00,88.4,29.3,29.45,WSW,240,5.0,7.0,12,0.00,,,0.00,Wunderground v.1.15,2013-04-30 17:25:00,
2013-04-30 10:35:00,88.4,31.3,29.45,WNW,298,6.0,6.0,13,0.00,,,0.00,Wunderground v.1.15,2013-04-30 17:35:00,
2013-04-30 10:40:00,89.0,29.8,29.45,WSW,254,4.0,9.0,12,0.00,,,0.00,Wunderground v.1.15,2013-04-30 17:40:00,
2013-04-30 10:50:00,89.3,27.9,29.45,SW,234,5.0,5.0,11,0.00,,,0.00,Wunderground v.1.15,2013-04-30 17:50:00,
2013-04-30 10:55:00,89.0,27.7,29.45,West,269,3.0,6.0,11,0.00,,,0.00,Wunderground v.1.15,2013-04-30 17:55:00,
2013-04-30 11:05:00,89.7,30.3,29.45,WSW,242,3.0,12.0,12,0.00,,,0.00,Wunderground v.1.15,2013-04-30 18:05:00,
2013-04-30 11:15:00,89.5,28.0,29.45,WSW,240,4.0,4.0,11,0.00,,,0.00,Wunderground v.1.15,2013-04-30 18:15:00,
2013-04-30 11:25:00,90.1,28.5,29.45,West,280,4.0,4.0,11,0.00,,,0.00,Wunderground v.1.15,2013-04-30 18:25:00,
2013-04-30 11:30:00,90.5,30.9,29.45,WSW,238,5.0,5.0,12,0.00,,,0.00,Wunderground v.1.15,2013-04-30 18:30:00,
2013-04-30 11:40:00,90.5,30.9,29.45,WNW,302,2.0,3.0,12,0.00,,,0.00,Wunderground v.1.15,2013-04-30 18:40:00,
2013-04-30 11:50:00,91.0,29.2,29.44,WNW,293,6.0,6.0,11,0.00,,,0.00,Wunderground v.1.15,2013-04-30 18:50:00,
2013-04-30 11:55:00,90.7,26.6,29.44,WNW,282,6.0,13.0,10,0.00,,,0.00,Wunderground v.1.15,2013-04-30 18:55:00,
2013-04-30 12:05:00,92.1,27.7,29.44,SW,225,8.0,8.0,10,0.00,,,0.00,Wunderground v.1.15,2013-04-30 19:05:00,
2013-04-30 12:15:00,92.3,25.3,29.44,SW,225,3.0,6.0,9,0.00,,,0.00,Wunderground v.1.15,2013-04-30 19:15:00,
2013-04-30 12:25:00,91.8,29.8,29.44,SW,225,7.0,8.0,11,0.00,,,0.00,Wunderground v.1.15,2013-04-30 19:25:00,
2013-04-30 12:30:00,91.6,29.6,29.44,WSW,247,7.0,7.0,11,0.00,,,0.00,Wunderground v.1.15,2013-04-30 19:30:00,
2013-04-30 12:40:00,91.8,29.8,29.43,South,191,8.0,8.0,11,0.00,,,0.00,Wunderground v.1.15,2013-04-30 19:40:00,
2013-04-30 12:45:00,92.5,28.0,29.43,SW,235,9.0,9.0,10,0.00,,,0.00,Wunderground v.1.15,2013-04-30 19:45:00,
2013-04-30 12:55:00,92.5,30.3,29.42,WSW,246,10.0,11.0,11,0.00,,,0.00,Wunderground v.1.15,2013-04-30 19:55:00,
2013-04-30 13:05:00,92.5,30.3,29.43,WSW,240,11.0,13.0,11,0.00,,,0.00,Wunderground v.1.15,2013-04-30 20:05:00,
2013-04-30 13:15:00,93.4,31.0,29.43,SW,224,12.0,12.0,11,0.00,,,0.00,Wunderground v.1.15,2013-04-30 20:15:00,
2013-04-30 13:20:00,92.9,30.6,29.43,WSW,238,11.0,13.0,11,0.00,,,0.00,Wunderground v.1.15,2013-04-30 20:20:00,
2013-04-30 13:30:00,92.9,32.8,29.43,SW,236,11.0,11.0,12,0.00,,,0.00,Wunderground v.1.15,2013-04-30 20:30:00,
2013-04-30 13:40:00,93.4,31.0,29.42,WSW,244,11.0,11.0,11,0.00,,,0.00,Wunderground v.1.15,2013-04-30 20:40:00,
2013-04-30 13:45:00,93.4,33.2,29.42,SW,216,12.0,12.0,12,0.00,,,0.00,Wunderground v.1.15,2013-04-30 20:45:00,
2013-04-30 13:55:00,92.3,34.3,29.42,SW,227,13.0,14.0,13,0.00,,,0.00,Wunderground v.1.15,2013-04-30 20:55:00,
2013-04-30 14:00:00,92.3,34.3,29.42,SW,223,13.0,15.0,13,0.00,,,0.00,Wunderground v.1.15,2013-04-30 21:00:00,
2013-04-30 14:05:00,91.8,32.0,29.42,SW,219,13.0,15.0,12,0.00,,,0.00,Wunderground v.1.15,2013-04-30 21:05:00,
2013-04-30 14:15:00,92.5,34.5,29.42,SW,227,12.0,18.0,13,0.00,,,0.00,Wunderground v.1.15,2013-04-30 21:15:00,
2013-04-30 14:20:00,92.1,34.2,29.41,WSW,244,14.0,15.0,13,0.00,,,0.00,Wunderground v.1.15,2013-04-30 21:20:00,
2013-04-30 14:30:00,92.5,34.5,29.41,WSW,242,14.0,15.0,13,0.00,,,0.00,Wunderground v.1.15,2013-04-30 21:30:00,
2013-04-30 14:40:00,92.1,34.2,29.41,West,263,14.0,14.0,13,0.00,,,0.00,Wunderground v.1.15,2013-04-30 21:40:00,
2013-04-30 14:45:00,91.8,33.9,29.41,SW,229,13.0,14.0,13,0.00,,,0.00,Wunderground v.1.15,2013-04-30 21:45:00,
2013-04-30 14:55:00,92.1,34.2,29.40,SW,221,14.0,14.0,13,0.00,,,0.00,Wunderground v.1.15,2013-04-30 21:55:00,
2013-04-30 15:05:00,91.8,33.9,29.40,WSW,245,14.0,20.0,13,0.00,,,0.00,Wunderground v.1.15,2013-04-30 22:05:00,
2013-04-30 15:15:00,91.2,33.5,29.40,SW,223,14.0,20.0,13,0.00,,,0.00,Wunderground v.1.15,2013-04-30 22:15:00,
2013-04-30 15:25:00,90.7,33.1,29.40,SSW,205,13.0,17.0,13,0.00,,,0.00,Wunderground v.1.15,2013-04-30 22:25:00,
2013-04-30 15:30:00,92.1,34.2,29.40,WSW,254,12.0,12.0,13,0.00,,,0.00,Wunderground v.1.15,2013-04-30 22:30:00,
2013-04-30 15:40:00,91.6,33.8,29.39,SW,230,13.0,13.0,13,0.00,,,0.00,Wunderground v.1.15,2013-04-30 22:40:00,
2013-04-30 15:45:00,91.0,35.2,29.39,SSW,195,14.0,14.0,14,0.00,,,0.00,Wunderground v.1.15,2013-04-30 22:45:00,
2013-04-30 15:55:00,91.0,35.2,29.39,SW,224,16.0,25.0,14,0.00,,,0.00,Wunderground v.1.15,2013-04-30 22:55:00,
2013-04-30 16:00:00,90.5,34.8,29.39,WSW,243,17.0,18.0,14,0.00,,,0.00,Wunderground v.1.15,2013-04-30 23:00:00,
2013-04-30 16:05:00,89.5,35.7,29.39,SW,221,17.0,18.0,15,0.00,,,0.00,Wunderground v.1.15,2013-04-30 23:05:00,
2013-04-30 16:15:00,89.0,37.0,29.39,South,188,16.0,17.0,16,0.00,,,0.00,Wunderground v.1.15,2013-04-30 23:15:00,
2013-04-30 16:25:00,88.2,36.3,29.39,SSW,196,15.0,15.0,16,0.00,,,0.00,Wunderground v.1.15,2013-04-30 23:25:00,
2013-04-30 16:30:00,87.6,35.9,29.39,SW,225,15.0,19.0,16,0.00,,,0.00,Wunderground v.1.15,2013-04-30 23:30:00,
2013-04-30 16:40:00,86.5,38.0,29.39,SW,225,15.0,15.0,18,0.00,,,0.00,Wunderground v.1.15,2013-04-30 23:40:00,
2013-04-30 16:50:00,86.7,38.1,29.39,SSW,209,15.0,15.0,18,0.00,,,0.00,Wunderground v.1.15,2013-04-30 23:50:00,
2013-04-30 16:55:00,86.7,38.1,29.39,SW,228,15.0,20.0,18,0.00,,,0.00,Wunderground v.1.15,2013-04-30 23:55:00,
2013-04-30 17:05:00,86.1,37.6,29.39,WSW,237,15.0,26.0,18,0.00,,,0.00,Wunderground v.1.15,2013-05-01 00:05:00,
2013-04-30 17:15:00,86.1,36.2,29.39,SW,227,15.0,19.0,17,0.00,,,0.00,Wunderground v.1.15,2013-05-01 00:15:00,
2013-04-30 17:20:00,85.9,36.0,29.39,SSW,200,14.0,14.0,17,0.00,,,0.00,Wunderground v.1.15,2013-05-01 00:20:00,
2013-04-30 17:30:00,85.7,35.9,29.39,SSW,208,14.0,17.0,17,0.00,,,0.00,Wunderground v.1.15,2013-05-01 00:30:00,
2013-04-30 17:40:00,85.5,35.7,29.39,WSW,244,13.0,14.0,17,0.00,,,0.00,Wunderground v.1.15,2013-05-01 00:40:00,
2013-04-30 17:45:00,85.3,37.0,29.39,South,178,13.0,16.0,18,0.00,,,0.00,Wunderground v.1.15,2013-05-01 00:45:00,
2013-04-30 17:55:00,84.7,37.9,29.38,SW,229,14.0,14.0,19,0.00,,,0.00,Wunderground v.1.15,2013-05-01 00:55:00,
2013-04-30 18:05:00,84.3,37.5,29.39,SW,223,13.0,14.0,19,0.00,,,0.00,Wunderground v.1.15,2013-05-01 01:05:00,
2013-04-30 18:15:00,84.1,38.7,29.39,SSW,212,11.0,14.0,20,0.00,,,0.00,Wunderground v.1.15,2013-05-01 01:15:00,
2013-04-30 18:20:00,84.3,37.5,29.39,SW,216,11.0,12.0,19,0.00,,,0.00,Wunderground v.1.15,2013-05-01 01:20:00,
2013-04-30 18:30:00,84.0,39.9,29.39,SSW,201,8.0,8.0,21,0.00,,,0.00,Wunderground v.1.15,2013-05-01 01:30:00,
2013-04-30 18:40:00,83.8,39.7,29.39,WSW,240,5.0,7.0,21,0.00,,,0.00,Wunderground v.1.15,2013-05-01 01:40:00,
2013-04-30 18:45:00,83.8,39.7,29.39,SSW,209,5.0,7.0,21,0.00,,,0.00,Wunderground v.1.15,2013-05-01 01:45:00,
2013-04-30 18:55:00,84.3,40.1,29.39,SSW,210,4.0,5.0,21,0.00,,,0.00,Wunderground v.1.15,2013-05-01 01:55:00,
2013-04-30 19:05:00,84.1,37.4,29.39,SSW,205,3.0,4.0,19,0.00,,,0.00,Wunderground v.1.15,2013-05-01 02:05:00,
2013-04-30 19:15:00,83.6,38.3,29.39,WSW,245,5.0,6.0,20,0.00,,,0.00,Wunderground v.1.15,2013-05-01 02:15:00,
2013-04-30 19:25:00,82.4,38.5,29.39,WSW,242,4.0,5.0,21,0.00,,,0.00,Wunderground v.1.15,2013-05-01 02:25:00,
2013-04-30 19:30:00,81.8,39.2,29.39,SW,229,4.0,4.0,22,0.00,,,0.00,Wunderground v.1.15,2013-05-01 02:30:00,
2013-04-30 19:35:00,81.4,38.9,29.40,SSW,200,5.0,7.0,22,0.00,,,0.00,Wunderground v.1.15,2013-05-01 02:35:00,
2013-04-30 19:45:00,80.9,38.5,29.40,SSW,206,6.0,9.0,22,0.00,,,0.00,Wunderground v.1.15,2013-05-01 02:45:00,
2013-04-30 19:50:00,80.5,38.1,29.41,SSW,209,5.0,5.0,22,0.00,,,0.00,Wunderground v.1.15,2013-05-01 02:50:00,
2013-04-30 20:00:00,79.9,38.8,29.41,SW,225,5.0,9.0,23,0.00,,,0.00,Wunderground v.1.15,2013-05-01 03:00:00,
2013-04-30 20:05:00,79.6,38.5,29.42,SW,232,5.0,9.0,23,0.00,,,0.00,Wunderground v.1.15,2013-05-01 03:05:00,
2013-04-30 20:15:00,79.0,39.1,29.42,SW,219,6.0,7.0,24,0.00,,,0.00,Wunderground v.1.15,2013-05-01 03:15:00,
2013-04-30 20:20:00,78.6,39.8,29.42,SSW,200,6.0,12.0,25,0.00,,,0.00,Wunderground v.1.15,2013-05-01 03:20:00,
2013-04-30 20:30:00,78.1,39.4,29.42,South,180,7.0,7.0,25,0.00,,,0.00,Wunderground v.1.15,2013-05-01 03:30:00,
2013-04-30 20:40:00,78.1,39.4,29.43,SW,223,6.0,6.0,25,0.00,,,0.00,Wunderground v.1.15,2013-05-01 03:40:00,
2013-04-30 20:45:00,77.9,39.2,29.43,SW,223,5.0,6.0,25,0.00,,,0.00,Wunderground v.1.15,2013-05-01 03:45:00,
2013-04-30 20:50:00,77.9,40.2,29.44,SW,220,6.0,9.0,26,0.00,,,0.00,Wunderground v.1.15,2013-05-01 03:50:00,
2013-04-30 21:00:00,77.4,39.8,29.44,SW,215,7.0,7.0,26,0.00,,,0.00,Wunderground v.1.15,2013-05-01 04:00:00,
2013-04-30 21:05:00,77.2,40.6,29.45,SSW,210,6.0,7.0,27,0.00,,,0.00,Wunderground v.1.15,2013-05-01 04:05:00,
2013-04-30 21:15:00,76.5,40.0,29.45,SSW,213,3.0,4.0,27,0.00,,,0.00,Wunderground v.1.15,2013-05-01 04:15:00,
2013-04-30 21:20:00,76.1,40.6,29.45,SW,220,3.0,3.0,28,0.00,,,0.00,Wunderground v.1.15,2013-05-01 04:20:00,
2013-04-30 21:30:00,76.0,40.5,29.45,SW,221,3.0,5.0,28,0.00,,,0.00,Wunderground v.1.15,2013-05-01 04:30:00,
2013-04-30 21:35:00,76.3,40.8,29.46,SW,229,3.0,5.0,28,0.00,,,0.00,Wunderground v.1.15,2013-05-01 04:35:00,
2013-04-30 21:40:00,76.1,40.6,29.46,SSE,163,2.0,5.0,28,0.00,,,0.00,Wunderground v.1.15,2013-05-01 04:40:00,
2013-04-30 21:50:00,76.0,40.5,29.47,SSW,195,3.0,9.0,28,0.00,,,0.00,Wunderground v.1.15,2013-05-01 04:50:00,
2013-04-30 21:55:00,75.8,40.4,29.47,SSW,207,3.0,13.0,28,0.00,,,0.00,Wunderground v.1.15,2013-05-01 04:55:00,
2013-04-30 22:00:00,75.6,39.2,29.47,South,171,2.0,2.0,27,0.00,,,0.00,Wunderground v.1.15,2013-05-01 05:00:00,
2013-04-30 22:05:00,75.4,40.0,29.48,SSE,148,1.0,2.0,28,0.00,,,0.00,Wunderground v.1.15,2013-05-01 05:05:00,
2013-04-30 22:15:00,75.3,39.0,29.48,SW,217,1.0,5.0,27,0.00,,,0.00,Wunderground v.1.15,2013-05-01 05:15:00,
2013-04-30 22:20:00,75.6,40.2,29.48,SSW,208,3.0,3.0,28,0.00,,,0.00,Wunderground v.1.15,2013-05-01 05:20:00,
2013-04-30 22:30:00,75.1,39.8,29.48,SSW,206,2.0,2.0,28,0.00,,,0.00,Wunderground v.1.15,2013-05-01 05:30:00,
2013-04-30 22:35:00,74.7,39.4,29.49,SSW,209,1.0,2.0,28,0.00,,,0.00,Wunderground v.1.15,2013-05-01 05:35:00,
2013-04-30 22:45:00,74.4,40.1,29.49,SSW,210,0.0,0.0,29,0.00,,,0.00,Wunderground v.1.15,2013-05-01 05:45:00,
2013-04-30 22:50:00,74.4,40.1,29.50,SSW,192,0.0,0.0,29,0.00,,,0.00,Wunderground v.1.15,2013-05-01 05:50:00,
2013-04-30 23:00:00,74.0,39.7,29.50,SSW,213,0.0,0.0,29,0.00,,,0.00,Wunderground v.1.15,2013-05-01 06:00:00,
2013-04-30 23:05:00,74.0,39.7,29.50,SW,223,1.0,11.0,29,0.00,,,0.00,Wunderground v.1.15,2013-05-01 06:05:00,
2013-04-30 23:15:00,74.4,40.1,29.50,WSW,245,5.0,8.0,29,0.00,,,0.00,Wunderground v.1.15,2013-05-01 06:15:00,
2013-04-30 23:20:00,74.4,39.2,29.51,SSW,207,3.0,3.0,28,0.00,,,0.00,Wunderground v.1.15,2013-05-01 06:20:00,
2013-04-30 23:30:00,73.7,44.3,29.51,SSW,205,2.0,2.0,35,0.00,,,0.00,Wunderground v.1.15,2013-05-01 06:30:00,
2013-04-30 23:35:00,73.0,44.5,29.52,SSW,205,0.0,2.0,36,0.00,,,0.00,Wunderground v.1.15,2013-05-01 06:35:00,
2013-04-30 23:45:00,72.5,44.0,29.52,SSW,205,0.0,0.0,36,0.00,,,0.00,Wunderground v.1.15,2013-05-01 06:45:00,
2013-04-30 23:50:00,72.3,41.6,29.52,SSW,205,0.0,0.0,33,0.00,,,0.00,Wunderground v.1.15,2013-05-01 06:50:00,